createdAt,value
2018-09-21T00:01:28.374Z,8.07
2018-09-21T00:05:30.593Z,8.67
2018-09-21T00:09:32.808Z,7.53
2018-09-21T00:13:34.956Z,7.93
2018-09-21T00:17:37.435Z,7.13
2018-09-21T00:21:39.637Z,7.83
2018-09-21T00:25:41.775Z,7.03
2018-09-21T00:29:43.929Z,7.50
2018-09-21T00:33:46.150Z,7.97
2018-09-21T00:37:48.400Z,8.33
2018-09-21T00:41:50.607Z,7.23
2018-09-21T00:45:52.754Z,8.47
2018-09-21T00:49:54.912Z,8.53
2018-09-21T00:55:26.599Z,7.87
2018-09-21T00:59:28.736Z,7.70
2018-09-21T01:03:30.910Z,7.93
2018-09-21T01:07:33.097Z,8.73
2018-09-21T01:11:35.351Z,7.70
2018-09-21T01:15:37.541Z,7.77
2018-09-21T01:19:39.710Z,7.30
2018-09-21T01:23:41.892Z,7.93
2018-09-21T01:27:44.064Z,7.40
2018-09-21T01:31:46.200Z,7.83
2018-09-21T01:35:48.437Z,7.47
2018-09-21T01:39:50.599Z,8.10
2018-09-21T01:43:52.812Z,7.30
2018-09-21T01:47:54.936Z,8.10
2018-09-21T01:51:57.079Z,8.07
2018-09-21T01:55:59.304Z,8.63
2018-09-21T02:00:01.499Z,8.37
2018-09-21T02:04:03.698Z,8.50
2018-09-21T02:08:05.834Z,7.97
2018-09-21T02:12:07.992Z,9.20
2018-09-21T02:16:10.168Z,8.40
2018-09-21T02:20:12.435Z,9.30
2018-09-21T02:24:14.911Z,8.67
2018-09-21T02:28:17.426Z,8.87
2018-09-21T02:32:19.704Z,8.67
2018-09-21T02:36:22.485Z,8.07
2018-09-21T02:40:25.109Z,7.90
2018-09-21T02:44:27.313Z,9.73
2018-09-21T02:48:30.059Z,9.73
2018-09-21T02:52:32.408Z,8.23
2018-09-21T02:56:35.178Z,9.30
2018-09-21T03:00:37.554Z,8.90
2018-09-21T03:04:45.309Z,8.83
2018-09-21T03:08:47.740Z,8.20
2018-09-21T03:12:50.010Z,8.90
2018-09-21T03:16:52.167Z,8.73
2018-09-21T03:20:54.403Z,9.33
2018-09-21T03:24:57.312Z,8.97
2018-09-21T03:29:01.040Z,9.57
2018-09-21T03:33:03.263Z,9.70
2018-09-21T03:37:05.450Z,9.23
2018-09-21T03:41:07.657Z,8.87
2018-09-21T03:45:09.854Z,8.50
2018-09-21T03:49:12.055Z,9.40
2018-09-21T03:53:14.240Z,8.90
2018-09-21T03:57:16.407Z,9.37
2018-09-21T04:01:18.587Z,8.27
2018-09-21T04:05:21.823Z,9.87
2018-09-21T04:09:24.067Z,9.77
2018-09-21T04:13:26.303Z,9.33
2018-09-21T04:17:28.481Z,10.37
2018-09-21T04:21:30.665Z,9.90
2018-09-21T04:25:32.831Z,9.43
2018-09-21T04:29:34.984Z,9.93
2018-09-21T04:33:37.134Z,10.03
2018-09-21T04:37:39.335Z,9.70
2018-09-21T04:41:41.505Z,10.60
2018-09-21T04:45:43.805Z,10.00
2018-09-21T04:49:45.940Z,9.90
2018-09-21T04:53:48.128Z,9.90
2018-09-21T04:57:50.349Z,10.40
2018-09-21T05:01:52.550Z,10.30
2018-09-21T05:05:54.786Z,13.07
2018-09-21T05:09:57.042Z,10.13
2018-09-21T05:13:59.314Z,10.77
2018-09-21T05:18:01.490Z,11.13
2018-09-21T05:22:03.860Z,11.10
2018-09-21T05:26:06.144Z,11.07
2018-09-21T05:30:08.333Z,13.20
2018-09-21T05:34:10.526Z,12.73
2018-09-21T05:38:12.732Z,12.70
2018-09-21T05:42:14.894Z,11.93
2018-09-21T05:46:17.082Z,12.07
2018-09-21T05:50:19.231Z,12.60
2018-09-21T05:54:21.424Z,13.20
2018-09-21T05:58:23.607Z,13.20
2018-09-21T06:02:25.834Z,11.47
2018-09-21T06:06:27.967Z,13.20
2018-09-21T06:10:30.159Z,12.27
2018-09-21T06:14:32.312Z,13.17
2018-09-21T06:18:34.490Z,11.80
2018-09-21T06:22:44.980Z,11.67
2018-09-21T06:26:38.862Z,11.80
2018-09-21T06:30:41.018Z,10.80
2018-09-21T06:34:43.242Z,9.23
2018-09-21T06:38:45.421Z,9.13
2018-09-21T06:42:47.619Z,10.03
2018-09-21T06:46:49.897Z,9.27
2018-09-21T06:50:52.106Z,10.93
2018-09-21T06:54:54.276Z,9.90
2018-09-21T06:58:56.492Z,9.23
2018-09-21T07:02:58.708Z,10.47
2018-09-21T07:07:00.843Z,8.93
2018-09-21T07:11:02.994Z,10.27
2018-09-21T07:15:05.251Z,9.73
2018-09-21T07:19:08.119Z,8.67
2018-09-21T07:23:10.271Z,7.07
2018-09-21T07:27:12.444Z,6.73
2018-09-21T07:31:14.628Z,7.37
2018-09-21T07:35:16.736Z,7.30
2018-09-21T07:39:18.879Z,6.97
2018-09-21T07:43:21.084Z,7.47
2018-09-21T07:47:23.277Z,8.50
2018-09-21T07:51:25.460Z,8.47
2018-09-21T07:55:27.632Z,7.03
2018-09-21T07:59:29.804Z,9.33
2018-09-21T08:03:32.049Z,9.57
2018-09-21T08:07:34.245Z,6.97
2018-09-21T08:11:36.820Z,7.23
2018-09-21T08:15:38.958Z,8.00
2018-09-21T08:19:41.104Z,7.47
2018-09-21T08:23:43.243Z,6.93
2018-09-21T08:27:45.399Z,7.33
2018-09-21T08:31:47.535Z,7.47
2018-09-21T08:35:49.720Z,7.53
2018-09-21T08:39:51.849Z,8.07
2018-09-21T08:43:54.016Z,8.93
2018-09-21T08:47:56.201Z,7.97
2018-09-21T08:51:58.355Z,7.20
2018-09-21T08:56:01.719Z,7.63
2018-09-21T09:00:04.251Z,8.10
2018-09-21T09:04:06.555Z,7.80
2018-09-21T09:08:08.806Z,8.50
2018-09-21T09:12:10.960Z,7.20
2018-09-21T09:16:13.215Z,7.17
2018-09-21T09:20:15.379Z,7.30
2018-09-21T09:24:17.560Z,6.97
2018-09-21T09:28:19.797Z,6.27
2018-09-21T09:32:21.983Z,5.90
2018-09-21T09:36:24.212Z,7.97
2018-09-21T09:40:29.760Z,6.10
2018-09-21T09:44:32.272Z,6.60
2018-09-21T09:48:34.494Z,7.37
2018-09-21T09:52:36.707Z,8.53
2018-09-21T09:56:38.971Z,6.93
2018-09-21T10:00:46.736Z,6.27
2018-09-21T10:04:48.918Z,6.80
2018-09-21T10:08:51.101Z,7.23
2018-09-21T10:12:53.339Z,7.63
2018-09-21T10:16:55.534Z,6.73
2018-09-21T10:20:57.838Z,5.63
2018-09-21T10:25:00.035Z,5.50
2018-09-21T10:29:02.203Z,5.80
2018-09-21T10:33:05.512Z,6.47
2018-09-21T10:37:07.714Z,6.03
2018-09-21T10:41:10.735Z,4.93
2018-09-21T10:45:12.960Z,4.77
2018-09-21T10:49:15.624Z,5.33
2018-09-21T10:53:17.840Z,4.70
2018-09-21T10:57:20.066Z,4.83
2018-09-21T11:01:22.245Z,5.23
2018-09-21T11:05:24.500Z,4.97
2018-09-21T11:09:26.784Z,4.30
2018-09-21T11:13:29.055Z,3.87
2018-09-21T11:17:31.308Z,4.00
2018-09-21T11:21:33.452Z,3.37
2018-09-21T11:25:35.658Z,3.20
2018-09-21T11:29:37.833Z,4.03
2018-09-21T11:33:40.027Z,4.37
2018-09-21T11:37:42.221Z,2.87
2018-09-21T11:41:44.423Z,3.17
2018-09-21T11:45:46.616Z,3.47
2018-09-21T11:49:48.819Z,2.50
2018-09-21T11:53:51.104Z,2.43
2018-09-21T11:57:53.280Z,2.20
2018-09-21T12:01:55.518Z,3.00
2018-09-21T12:05:57.654Z,2.73
2018-09-21T12:09:59.955Z,2.30
2018-09-21T12:14:02.280Z,2.47
2018-09-21T12:18:04.551Z,4.37
2018-09-21T12:22:06.763Z,1.77
2018-09-21T12:26:09.027Z,1.73
2018-09-21T12:30:11.254Z,2.20
2018-09-21T12:34:13.465Z,1.70
2018-09-21T12:38:16.395Z,1.43
2018-09-21T12:42:18.707Z,1.60
2018-09-21T12:46:24.839Z,1.93
2018-09-21T12:50:27.128Z,1.47
2018-09-21T12:54:29.447Z,2.17
2018-09-21T12:58:31.789Z,2.27
2018-09-21T13:02:33.952Z,1.80
2018-09-21T13:06:36.202Z,3.43
2018-09-21T13:10:38.489Z,2.00
2018-09-21T13:14:40.819Z,2.20
2018-09-21T13:18:43.129Z,1.97
2018-09-21T13:22:45.321Z,2.60
2018-09-21T13:26:47.849Z,2.50
2018-09-21T13:30:49.920Z,2.07
2018-09-21T13:34:52.156Z,1.90
2018-09-21T13:38:54.452Z,1.90
2018-09-21T13:42:56.663Z,1.00
2018-09-21T13:46:58.832Z,1.20
2018-09-21T13:51:00.974Z,1.37
2018-09-21T13:55:03.161Z,1.47
2018-09-21T13:59:05.529Z,1.77
2018-09-21T14:03:07.678Z,1.13
2018-09-21T14:07:09.850Z,1.93
2018-09-21T14:11:12.046Z,2.50
2018-09-21T14:15:14.548Z,1.87
2018-09-21T14:19:16.763Z,1.87
2018-09-21T14:23:19.037Z,2.00
2018-09-21T14:27:21.228Z,3.20
2018-09-21T14:31:23.476Z,2.17
2018-09-21T14:35:25.675Z,2.80
2018-09-21T14:39:27.896Z,2.20
2018-09-21T14:43:30.068Z,2.10
2018-09-21T14:47:32.285Z,2.50
2018-09-21T14:51:34.494Z,1.70
2018-09-21T14:55:36.712Z,2.57
2018-09-21T14:59:38.894Z,2.40
2018-09-21T15:03:41.095Z,2.93
2018-09-21T15:07:43.258Z,2.20
2018-09-21T15:11:45.730Z,3.13
2018-09-21T15:15:47.992Z,2.47
2018-09-21T15:19:50.254Z,2.97
2018-09-21T15:23:52.541Z,3.10
2018-09-21T15:27:55.385Z,2.40
2018-09-21T15:31:57.567Z,2.50
2018-09-21T15:35:59.796Z,2.87
2018-09-21T15:40:01.972Z,3.40
2018-09-21T15:44:04.294Z,2.63
2018-09-21T15:48:06.580Z,2.87
2018-09-21T15:52:08.780Z,2.53
2018-09-21T15:56:10.993Z,2.30
2018-09-21T16:00:13.231Z,3.43
2018-09-21T16:04:15.399Z,2.37
2018-09-21T16:08:17.578Z,2.67
2018-09-21T16:12:19.837Z,2.93
2018-09-21T16:16:22.106Z,3.60
2018-09-21T16:20:24.311Z,3.10
2018-09-21T16:24:26.527Z,2.63
2018-09-21T16:28:28.735Z,3.47
2018-09-21T16:32:31.009Z,3.03
2018-09-21T16:36:33.346Z,2.83
2018-09-21T16:40:35.767Z,2.97
2018-09-21T16:44:38.947Z,2.77
2018-09-21T16:48:41.176Z,4.13
2018-09-21T16:52:43.335Z,1.87
2018-09-21T16:56:45.572Z,2.70
2018-09-21T17:00:47.828Z,2.70
2018-09-21T17:04:50.148Z,1.90
2018-09-21T17:08:52.525Z,1.97
2018-09-21T17:12:54.781Z,1.60
2018-09-21T17:16:57.004Z,2.73
2018-09-21T17:20:59.267Z,2.93
2018-09-21T17:25:01.442Z,1.80
2018-09-21T17:29:03.771Z,1.67
2018-09-21T17:33:05.705Z,2.10
2018-09-21T17:37:08.065Z,1.70
2018-09-21T17:41:10.309Z,1.90
2018-09-21T17:45:12.542Z,1.60
2018-09-21T17:49:14.771Z,1.20
2018-09-21T17:53:17.577Z,1.53
2018-09-21T17:57:20.464Z,1.33
2018-09-21T18:01:22.701Z,2.07
2018-09-21T18:05:24.969Z,1.60
2018-09-21T18:09:27.359Z,1.10
2018-09-21T18:13:29.582Z,1.77
2018-09-21T18:17:32.757Z,1.07
2018-09-21T18:21:35.063Z,1.40
2018-09-21T18:25:37.419Z,1.20
2018-09-21T18:29:39.826Z,0.80
2018-09-21T18:33:42.125Z,1.10
2018-09-21T18:37:44.380Z,1.10
2018-09-21T18:41:47.024Z,1.07
2018-09-21T18:45:49.240Z,1.10
2018-09-21T18:49:51.496Z,1.57
2018-09-21T18:53:53.884Z,0.80
2018-09-21T18:57:56.519Z,1.10
2018-09-21T19:01:59.103Z,1.57
2018-09-21T19:06:01.516Z,1.20
2018-09-21T19:10:03.927Z,0.90
2018-09-21T19:14:06.256Z,1.10
2018-09-21T19:18:08.643Z,1.10
2018-09-21T19:22:11.196Z,1.67
2018-09-21T19:26:13.795Z,1.47
2018-09-21T19:30:16.398Z,1.40
2018-09-21T19:34:18.941Z,1.07
2018-09-21T19:38:21.476Z,0.97
2018-09-21T19:42:23.953Z,1.30
2018-09-21T19:46:26.263Z,1.00
2018-09-21T19:50:28.553Z,1.30
2018-09-21T19:54:30.824Z,1.47
2018-09-21T19:58:33.159Z,1.50
2018-09-21T20:02:35.391Z,1.13
2018-09-21T20:06:37.626Z,1.40
2018-09-21T20:10:39.861Z,2.13
2018-09-21T20:14:42.223Z,1.10
2018-09-21T20:18:44.485Z,2.10
2018-09-21T20:22:46.778Z,1.40
2018-09-21T20:26:48.980Z,1.43
2018-09-21T20:32:00.838Z,1.30
2018-09-21T20:36:03.094Z,1.47
2018-09-21T20:40:05.339Z,1.22
2018-09-21T20:44:07.560Z,1.03
2018-09-21T20:48:09.712Z,2.40
2018-09-21T20:52:12.045Z,1.30
2018-09-21T20:56:14.324Z,1.23
2018-09-21T21:00:16.456Z,1.50
2018-09-21T21:04:18.821Z,2.73
2018-09-21T21:08:20.963Z,1.40
2018-09-21T21:12:23.212Z,1.70
2018-09-21T21:16:25.407Z,1.40
2018-09-21T21:20:27.595Z,1.60
2018-09-21T21:24:29.807Z,1.77
2018-09-21T21:28:32.016Z,1.37
2018-09-21T21:32:34.212Z,1.20
2018-09-21T21:36:36.368Z,1.40
2018-09-21T21:40:38.564Z,1.27
2018-09-21T21:44:40.710Z,1.50
2018-09-21T21:48:42.880Z,1.33
2018-09-21T21:52:45.035Z,1.13
2018-09-21T21:56:47.296Z,1.10
2018-09-21T22:00:55.088Z,2.17
2018-09-21T22:04:57.269Z,2.13
2018-09-21T22:08:59.457Z,1.40
2018-09-21T22:13:07.411Z,2.87
2018-09-21T22:17:09.622Z,1.67
2018-09-21T22:21:11.872Z,2.23
2018-09-21T22:25:14.032Z,2.27
2018-09-21T22:29:16.186Z,1.67
2018-09-21T22:33:18.386Z,1.87
2018-09-21T22:37:20.566Z,1.63
2018-09-21T22:41:22.731Z,1.53
2018-09-21T22:45:24.922Z,2.33
2018-09-21T22:49:28.157Z,1.77
2018-09-21T22:53:31.476Z,2.00
2018-09-21T22:57:35.045Z,1.50
2018-09-21T23:01:38.641Z,2.03
2018-09-21T23:05:42.196Z,1.50
2018-09-21T23:09:45.398Z,1.63
2018-09-21T23:13:47.726Z,1.43
2018-09-21T23:17:50.029Z,3.67
2018-09-21T23:21:53.147Z,1.63
2018-09-21T23:25:56.403Z,2.10
2018-09-21T23:29:58.999Z,1.90
2018-09-21T23:34:01.247Z,2.00
2018-09-21T23:38:04.434Z,2.10
2018-09-21T23:42:07.432Z,2.00
2018-09-21T23:46:09.743Z,2.37
2018-09-21T23:50:13.330Z,1.77
2018-09-21T23:54:16.995Z,1.47
2018-09-21T23:58:19.866Z,2.50
